Time;durP1;ratioP1;P1;durP2;ratioP2;P2;SDS_P1;SDS_P2;PMS_P1;PMS_P2;Temp;Humidity;BMP_temperature;BMP_pressure;BME280_temperature;BME280_humidity;BME280_pressure;Samples;Min_cycle;Max_cycle;Signal;HPM_P1;HPM_P2
2021/11/06 00:00:39;;;;;;;;;32.75;29.50;;;;;10.38;61.17;102967.75;4975962;28;45289;-83
2021/11/06 00:03:06;;;;;;;;;33.75;26.50;;;;;10.33;61.38;102965.13;4964171;28;45453;-82
2021/11/06 00:05:32;;;;;;;;;30.50;27.75;;;;;10.29;61.43;102976.50;4979054;28;45398;-83
2021/11/06 00:07:58;;;;;;;;;28.50;27.25;;;;;10.25;61.25;102972.09;4982366;28;45380;-83
2021/11/06 00:10:24;;;;;;;;;33.50;30.50;;;;;10.21;61.30;102975.59;4977856;28;45448;-83
2021/11/06 00:12:49;;;;;;;;;27.50;26.75;;;;;10.16;61.75;102974.69;4962953;28;45424;-83
2021/11/06 00:15:15;;;;;;;;;32.00;26.50;;;;;10.13;61.89;102979.06;4963727;28;46084;-82
2021/11/06 00:17:41;;;;;;;;;28.50;28.50;;;;;10.08;61.93;102978.16;4982268;28;45361;-84
2021/11/06 00:20:08;;;;;;;;;26.00;24.50;;;;;10.06;61.71;102982.53;4980189;28;45544;-84
2021/11/06 00:22:34;;;;;;;;;26.25;25.50;;;;;10.02;61.95;102980.75;4965331;28;46147;-82
2021/11/06 00:25:01;;;;;;;;;29.25;24.75;;;;;9.98;61.80;102990.34;4982137;28;46511;-82
2021/11/06 00:27:27;;;;;;;;;32.25;29.50;;;;;9.95;61.79;102992.09;4971712;28;45405;-81
2021/11/06 00:29:52;;;;;;;;;30.25;24.50;;;;;9.92;61.72;102997.31;4972372;28;45709;-81
2021/11/06 00:32:18;;;;;;;;;30.25;26.00;;;;;9.89;61.95;102999.06;4975643;28;45440;-81
2021/11/06 00:34:43;;;;;;;;;30.75;23.50;;;;;9.85;62.02;102988.53;4981901;28;46324;-81
2021/11/06 00:37:09;;;;;;;;;25.00;25.00;;;;;9.81;62.21;102989.34;4982400;28;45401;-81
2021/11/06 00:39:34;;;;;;;;;28.00;22.75;;;;;9.79;61.93;102989.34;4971373;28;45467;-81
2021/11/06 00:42:00;;;;;;;;;24.25;21.50;;;;;9.76;62.06;102981.44;4962427;28;45508;-81
2021/11/06 00:44:26;;;;;;;;;22.25;21.00;;;;;9.73;62.21;102984.09;4979938;28;46572;-82
2021/11/06 00:46:51;;;;;;;;;27.25;25.50;;;;;9.70;61.94;102976.19;4981864;28;45353;-82
2021/11/06 00:49:17;;;;;;;;;25.25;22.50;;;;;9.68;62.05;102973.50;4974097;28;45309;-82
2021/11/06 00:51:42;;;;;;;;;33.25;28.50;;;;;9.65;62.18;102987.53;4979451;28;45498;-82
2021/11/06 00:54:08;;;;;;;;;31.75;28.00;;;;;9.61;62.60;102980.47;4980671;28;45360;-82
2021/11/06 00:56:33;;;;;;;;;32.75;26.50;;;;;9.62;62.17;102984.00;4981982;28;45369;-82
2021/11/06 00:58:58;;;;;;;;;25.25;25.00;;;;;9.58;62.42;102977.81;4976710;28;45293;-81
2021/11/06 01:01:24;;;;;;;;;31.00;27.25;;;;;9.55;62.33;102975.19;4976540;28;45472;-81
2021/11/06 01:03:49;;;;;;;;;27.50;24.75;;;;;9.52;62.07;102976.06;4974911;28;46298;-80
2021/11/06 01:06:15;;;;;;;;;25.25;22.50;;;;;9.50;62.54;102974.28;4981710;28;45246;-80
2021/11/06 01:08:40;;;;;;;;;26.75;23.50;;;;;9.49;62.40;102967.25;4981428;28;45412;-79
2021/11/06 01:11:06;;;;;;;;;29.50;27.25;;;;;9.45;62.66;102967.25;4980577;28;45223;-78
2021/11/06 01:13:32;;;;;;;;;29.00;25.00;;;;;9.43;62.47;102958.47;4981349;28;45272;-78
2021/11/06 01:15:58;;;;;;;;;35.50;27.00;;;;;9.42;62.44;102956.72;4981638;28;45792;-78
2021/11/06 01:18:23;;;;;;;;;31.25;26.75;;;;;9.38;62.36;102960.22;4981233;28;45256;-78
2021/11/06 01:20:49;;;;;;;;;25.50;23.50;;;;;9.35;62.47;102968.03;4972726;28;45429;-78
2021/11/06 01:23:14;;;;;;;;;27.00;25.50;;;;;9.36;62.58;102968.94;4980972;28;46526;-78
2021/11/06 01:25:39;;;;;;;;;28.25;24.50;;;;;9.31;62.61;102972.38;4980721;28;45399;-78
2021/11/06 01:28:05;;;;;;;;;29.50;27.75;;;;;9.31;62.72;102968.91;4969725;28;45564;-78
2021/11/06 01:30:30;;;;;;;;;28.00;26.25;;;;;9.29;62.90;102967.97;4964112;28;45489;-79
2021/11/06 01:32:56;;;;;;;;;27.25;26.25;;;;;9.26;62.86;102974.06;4961475;28;45436;-79
2021/11/06 01:35:21;;;;;;;;;26.25;23.00;;;;;9.23;62.80;102967.06;4961636;28;45346;-79
2021/11/06 01:37:47;;;;;;;;;26.25;23.25;;;;;9.21;63.03;102963.53;4961550;28;45424;-79
2021/11/06 01:40:16;;;;;;;;;26.50;23.50;;;;;9.20;62.94;102969.69;4966058;28;45426;-79
2021/11/06 01:42:42;;;;;;;;;27.25;22.25;;;;;9.20;63.06;102972.31;4961638;28;45585;-79
2021/11/06 01:45:09;;;;;;;;;23.00;22.75;;;;;9.17;62.76;102961.78;4961543;28;46103;-78
2021/11/06 01:47:35;;;;;;;;;25.75;22.00;;;;;9.17;63.06;102959.16;4961695;28;45365;-78
2021/11/06 01:50:00;;;;;;;;;23.50;21.75;;;;;9.14;62.89;102953.84;4977516;28;45406;-78
2021/11/06 01:52:26;;;;;;;;;25.00;23.25;;;;;9.12;62.82;102952.97;4980517;28;45372;-78
2021/11/06 01:54:51;;;;;;;;;23.25;21.25;;;;;9.12;63.13;102947.72;4980983;28;45559;-78
2021/11/06 01:57:17;;;;;;;;;24.25;22.75;;;;;9.12;63.21;102966.09;4981103;28;45288;-78
2021/11/06 01:59:44;;;;;;;;;22.75;21.50;;;;;9.08;62.72;102961.69;4970149;28;45421;-79
2021/11/06 02:02:10;;;;;;;;;26.75;22.25;;;;;9.06;63.08;102958.19;4960802;28;45424;-79
2021/11/06 02:04:36;;;;;;;;;26.75;23.25;;;;;9.04;63.09;102962.53;4961141;28;45276;-79
2021/11/06 02:07:02;;;;;;;;;26.25;22.25;;;;;9.03;63.01;102959.03;4961394;28;45309;-79
2021/11/06 02:09:28;;;;;;;;;26.00;24.25;;;;;9.00;63.10;102959.88;4971138;28;45593;-79
2021/11/06 02:11:54;;;;;;;;;20.25;19.50;;;;;9.00;63.18;102965.13;4980386;28;45738;-79
2021/11/06 02:14:19;;;;;;;;;24.50;21.75;;;;;8.97;63.34;102962.47;4980836;28;45977;-79
2021/11/06 02:16:44;;;;;;;;;21.25;20.50;;;;;8.96;62.90;102963.31;4979887;28;45312;-79
2021/11/06 02:19:10;;;;;;;;;25.50;23.25;;;;;8.96;63.57;102967.69;4971088;28;45554;-79
2021/11/06 02:21:36;;;;;;;;;27.75;22.50;;;;;8.93;63.61;102965.94;4975622;28;45429;-79
2021/11/06 02:24:03;;;;;;;;;25.75;22.25;;;;;8.93;63.38;102965.94;4979675;28;45302;-78
2021/11/06 02:26:30;;;;;;;;;26.25;21.00;;;;;8.89;63.13;102964.13;4977189;28;45284;-78
2021/11/06 02:28:59;;;;;;;;;24.75;22.75;;;;;8.88;63.23;102970.25;4975044;28;45847;-78
2021/11/06 02:31:25;;;;;;;;;23.50;23.00;;;;;8.86;63.56;102967.63;4980038;28;46470;-78
2021/11/06 02:33:51;;;;;;;;;23.75;21.75;;;;;8.87;63.38;102973.72;4979472;28;45986;-80
2021/11/06 02:36:17;;;;;;;;;24.25;21.75;;;;;8.83;63.16;102964.06;4980270;28;45349;-80
2021/11/06 02:38:43;;;;;;;;;25.75;24.50;;;;;8.82;63.16;102964.91;4966184;28;45485;-77
2021/11/06 02:41:08;;;;;;;;;24.25;19.25;;;;;8.81;62.83;102965.81;4971884;28;45278;-77
2021/11/06 02:43:34;;;;;;;;;23.25;20.50;;;;;8.78;63.36;102967.53;4974780;28;45668;-81
2021/11/06 02:45:59;;;;;;;;;27.75;23.50;;;;;8.78;63.36;102964.03;4978913;28;45435;-79
2021/11/06 02:48:26;;;;;;;;;25.00;22.00;;;;;8.76;63.39;102956.16;4979847;28;45534;-79
2021/11/06 02:50:52;;;;;;;;;21.00;17.00;;;;;8.73;63.55;102955.22;4980332;28;45268;-79
2021/11/06 02:53:17;;;;;;;;;21.50;20.00;;;;;8.73;63.64;102956.09;4964460;28;45802;-79
2021/11/06 02:55:43;;;;;;;;;25.00;21.00;;;;;8.70;63.42;102956.06;4976655;28;45460;-80
2021/11/06 02:58:08;;;;;;;;;21.25;21.25;;;;;8.69;63.44;102954.31;4977952;28;45343;-80
2021/11/06 03:00:34;;;;;;;;;25.00;21.50;;;;;8.65;63.53;102948.16;4980253;28;45496;-80
2021/11/06 03:03:00;;;;;;;;;23.00;20.50;;;;;8.65;63.50;102947.28;4978675;28;45790;-80
2021/11/06 03:05:26;;;;;;;;;20.75;19.50;;;;;8.62;63.21;102949.84;4980173;28;45388;-80
2021/11/06 03:07:52;;;;;;;;;23.75;21.00;;;;;8.62;63.62;102953.34;4962111;28;46295;-80
2021/11/06 03:10:18;;;;;;;;;23.00;17.25;;;;;8.58;63.27;102958.53;4975954;28;45440;-80
2021/11/06 03:12:47;;;;;;;;;19.75;19.00;;;;;8.56;63.70;102953.28;4970282;28;45332;-79
2021/11/06 03:15:13;;;;;;;;;20.50;19.25;;;;;8.54;63.24;102960.25;4976153;28;45348;-79
2021/11/06 03:17:40;;;;;;;;;21.75;19.00;;;;;8.53;63.64;102966.34;4983157;28;45366;-80
2021/11/06 03:20:06;;;;;;;;;24.00;21.50;;;;;8.51;63.53;102966.31;4983084;28;45651;-80
2021/11/06 03:22:32;;;;;;;;;21.00;20.00;;;;;8.52;63.61;102975.06;4982380;28;45488;-80
2021/11/06 03:24:58;;;;;;;;;22.75;18.75;;;;;8.49;63.39;102975.91;4983208;28;45654;-79
2021/11/06 03:27:24;;;;;;;;;23.50;22.00;;;;;8.48;63.85;102978.50;4973439;28;45323;-80
2021/11/06 03:29:50;;;;;;;;;20.25;17.75;;;;;8.47;63.50;102977.63;4976481;28;45392;-80
2021/11/06 03:32:16;;;;;;;;;20.25;17.00;;;;;8.48;63.42;102978.50;4982339;28;45246;-81
2021/11/06 03:34:41;;;;;;;;;18.75;16.75;;;;;8.45;63.28;102976.72;4983155;28;45275;-81
2021/11/06 03:37:07;;;;;;;;;22.00;18.00;;;;;8.46;63.39;102975.88;4983277;28;45254;-80
2021/11/06 03:39:33;;;;;;;;;20.50;19.00;;;;;8.41;63.30;102964.44;4972403;28;46598;-80
2021/11/06 03:41:59;;;;;;;;;20.00;17.25;;;;;8.41;63.51;102969.69;4972096;28;45468;-81
2021/11/06 03:44:24;;;;;;;;;17.50;16.00;;;;;8.39;63.33;102966.19;4982957;28;45436;-82
2021/11/06 03:46:50;;;;;;;;;21.25;20.75;;;;;8.35;63.14;102954.75;4983076;28;45432;-81
2021/11/06 03:49:16;;;;;;;;;25.00;22.50;;;;;8.33;63.67;102962.63;4978550;28;45300;-80
2021/11/06 03:51:41;;;;;;;;;20.50;19.50;;;;;8.33;63.68;102967.84;4981745;28;45397;-80
2021/11/06 03:54:07;;;;;;;;;23.25;23.00;;;;;8.31;63.88;102972.19;4981839;28;45399;-79
2021/11/06 03:56:33;;;;;;;;;20.50;18.25;;;;;8.29;63.55;102970.41;4982856;28;45425;-80
2021/11/06 03:58:58;;;;;;;;;27.75;22.75;;;;;8.27;63.42;102972.16;4981811;28;45372;-80
2021/11/06 04:01:24;;;;;;;;;18.25;18.25;;;;;8.26;63.73;102968.63;4963059;28;45159;-78
2021/11/06 04:03:49;;;;;;;;;17.50;15.75;;;;;8.22;63.71;102969.47;4982630;28;45312;-78
2021/11/06 04:06:15;;;;;;;;;25.75;23.00;;;;;8.25;63.72;102973.88;4975451;28;45271;-78
2021/11/06 04:08:41;;;;;;;;;20.75;20.50;;;;;8.23;63.71;102976.44;4964496;28;46628;-78
2021/11/06 04:11:07;;;;;;;;;20.50;19.25;;;;;8.20;63.55;102979.03;4968024;28;45366;-78
2021/11/06 04:13:33;;;;;;;;;19.25;19.25;;;;;8.18;64.00;102975.50;4980543;28;45293;-78
2021/11/06 04:15:58;;;;;;;;;21.50;20.25;;;;;8.15;63.71;102981.59;4982393;28;45524;-78
2021/11/06 04:18:23;;;;;;;;;22.75;21.00;;;;;8.14;63.23;102978.97;4955602;28;46221;-78
2021/11/06 04:20:49;;;;;;;;;23.50;19.00;;;;;8.12;63.42;102983.28;4981217;28;45342;-79
2021/11/06 04:23:15;;;;;;;;;21.50;20.25;;;;;8.09;63.90;102978.91;4982445;28;45344;-80
2021/11/06 04:25:40;;;;;;;;;24.00;19.50;;;;;8.07;63.85;102985.84;4981204;28;45595;-79
2021/11/06 04:28:05;;;;;;;;;24.75;22.00;;;;;8.06;63.91;102986.69;4973794;28;45453;-79
2021/11/06 04:30:31;;;;;;;;;20.00;19.50;;;;;8.02;63.68;102996.28;4978133;28;45365;-79
2021/11/06 04:32:57;;;;;;;;;23.75;21.50;;;;;8.03;63.29;102990.16;4981993;28;45440;-82
2021/11/06 04:35:22;;;;;;;;;25.75;23.50;;;;;8.00;63.50;102992.72;4982196;28;45483;-82
2021/11/06 04:37:48;;;;;;;;;17.75;17.25;;;;;7.97;63.50;102993.59;4977775;28;45409;-82
2021/11/06 04:40:14;;;;;;;;;17.00;16.25;;;;;7.99;63.79;103004.06;4970119;28;45372;-81
2021/11/06 04:42:41;;;;;;;;;22.00;21.50;;;;;7.96;63.79;103004.03;4982172;28;45605;-82
2021/11/06 04:45:08;;;;;;;;;23.75;23.00;;;;;7.93;63.43;103003.97;4982265;28;45327;-80
2021/11/06 04:47:34;;;;;;;;;24.75;22.75;;;;;7.93;63.49;103003.97;4978271;28;46819;-79
2021/11/06 04:50:00;;;;;;;;;23.50;23.50;;;;;7.91;63.38;102995.22;4979315;28;45401;-79
2021/11/06 04:52:26;;;;;;;;;28.50;25.50;;;;;7.88;64.16;102994.31;4981564;28;45408;-81
2021/11/06 04:54:52;;;;;;;;;30.00;27.50;;;;;7.88;64.24;103003.91;4982070;28;45283;-77
2021/11/06 04:57:18;;;;;;;;;31.00;26.75;;;;;7.86;63.57;103001.28;4980749;28;45559;-78
2021/11/06 04:59:43;;;;;;;;;27.75;25.25;;;;;7.84;63.79;102997.75;4963462;28;45804;-79
2021/11/06 05:02:09;;;;;;;;;25.75;25.25;;;;;7.85;64.07;103002.13;4962407;28;45422;-80
2021/11/06 05:04:34;;;;;;;;;24.75;23.00;;;;;7.81;63.70;103002.06;4962256;28;45329;-78
2021/11/06 05:06:59;;;;;;;;;24.25;23.00;;;;;7.77;63.61;102998.53;4962005;28;45248;-79
2021/11/06 05:09:25;;;;;;;;;26.00;23.00;;;;;7.79;63.50;103006.38;4965701;28;45432;-80
2021/11/06 05:11:51;;;;;;;;;30.50;23.00;;;;;7.75;63.82;103003.72;4962234;28;45489;-79
2021/11/06 05:14:17;;;;;;;;;22.00;21.75;;;;;7.72;64.09;102997.56;4962659;28;45626;-79
2021/11/06 05:16:43;;;;;;;;;24.25;21.75;;;;;7.72;63.99;103006.31;4981431;28;45313;-79
2021/11/06 05:19:09;;;;;;;;;31.25;28.50;;;;;7.71;63.93;102995.78;4968774;28;45474;-79
2021/11/06 05:21:37;;;;;;;;;29.00;25.00;;;;;7.70;63.71;102996.66;4962145;28;45386;-80
2021/11/06 05:24:04;;;;;;;;;31.25;30.50;;;;;7.72;64.28;103000.19;4974720;28;45242;-81
2021/11/06 05:26:30;;;;;;;;;30.25;27.75;;;;;7.68;64.31;102987.91;4979631;28;46177;-85
2021/11/06 05:28:56;;;;;;;;;37.00;30.75;;;;;7.68;64.35;102987.91;4972560;28;45199;-84
2021/11/06 05:31:22;;;;;;;;;32.00;32.00;;;;;7.67;64.00;102980.91;4981377;28;45261;-84
2021/11/06 05:33:47;;;;;;;;;33.25;31.50;;;;;7.64;63.78;102976.50;4981228;28;45248;-84
2021/11/06 05:36:12;;;;;;;;;29.25;26.25;;;;;7.64;63.98;102980.00;4962761;28;47136;-82
2021/11/06 05:38:38;;;;;;;;;39.50;32.00;;;;;7.63;63.80;102990.47;4971626;28;45515;-77
2021/11/06 05:41:04;;;;;;;;;40.50;34.00;;;;;7.61;64.34;102992.16;4976642;28;45528;-78
2021/11/06 05:43:29;;;;;;;;;35.75;30.75;;;;;7.61;64.07;102992.16;4967424;28;46124;-79
2021/11/06 05:45:54;;;;;;;;;35.00;32.00;;;;;7.62;63.91;102989.56;4980684;28;46157;-79
2021/11/06 05:48:20;;;;;;;;;38.25;34.25;;;;;7.60;63.61;102982.56;4981026;28;45345;-86
2021/11/06 05:50:45;;;;;;;;;39.25;34.50;;;;;7.58;63.93;102987.75;4981126;28;45391;-84
2021/11/06 05:53:11;;;;;;;;;35.50;32.75;;;;;7.56;63.81;102984.22;4977999;28;46086;-83
2021/11/06 05:55:37;;;;;;;;;38.00;33.50;;;;;7.56;63.73;102993.81;4980828;28;46151;-82
2021/11/06 05:58:03;;;;;;;;;36.25;32.50;;;;;7.54;64.32;102999.03;4980948;28;45376;-82
2021/11/06 06:00:28;;;;;;;;;34.00;30.50;;;;;7.54;63.86;102999.91;4978464;28;45938;-82
2021/11/06 06:02:54;;;;;;;;;39.25;34.75;;;;;7.53;64.19;102994.66;4978291;28;45426;-82
2021/11/06 06:05:19;;;;;;;;;39.75;32.50;;;;;7.52;63.74;102998.13;4961477;28;46104;-82
2021/11/06 06:07:45;;;;;;;;;35.50;33.25;;;;;7.54;64.44;103004.25;4943480;28;45295;-83
2021/11/06 06:10:13;;;;;;;;;38.00;34.50;;;;;7.52;64.21;103005.97;4943863;28;45242;-82
2021/11/06 06:12:40;;;;;;;;;42.25;34.00;;;;;7.49;64.33;103004.19;4977007;28;45631;-85
2021/11/06 06:15:06;;;;;;;;;41.25;35.00;;;;;7.47;64.27;103010.25;4962983;28;47955;-85
2021/11/06 06:17:31;;;;;;;;;31.25;30.50;;;;;7.46;64.19;103014.59;4980479;28;45288;-85
2021/11/06 06:19:57;;;;;;;;;36.50;31.50;;;;;7.46;64.21;103013.75;4980952;28;45456;-86
2021/11/06 06:22:23;;;;;;;;;37.25;32.50;;;;;7.43;64.06;103010.19;4979230;28;45529;-84
2021/11/06 06:24:49;;;;;;;;;34.00;33.25;;;;;7.40;63.79;103010.16;4980131;28;45498;-84
2021/11/06 06:27:15;;;;;;;;;35.25;33.25;;;;;7.40;63.86;103015.38;4971502;28;45743;-85
2021/11/06 06:29:40;;;;;;;;;34.25;32.25;;;;;7.39;63.81;103024.09;4980783;28;45252;-85
2021/11/06 06:32:06;;;;;;;;;36.25;32.00;;;;;7.36;63.62;103021.41;4979511;28;45940;-79
2021/11/06 06:34:31;;;;;;;;;33.50;32.50;;;;;7.34;64.21;103023.13;4976940;28;45390;-77
2021/11/06 06:36:56;;;;;;;;;34.25;32.50;;;;;7.31;63.96;103023.94;4979916;28;45709;-78
2021/11/06 06:39:22;;;;;;;;;38.50;35.00;;;;;7.29;64.12;103027.38;4978295;28;45306;-77
2021/11/06 06:41:48;;;;;;;;;38.25;32.00;;;;;7.32;64.09;103038.78;4979386;28;46392;-77
2021/11/06 06:44:13;;;;;;;;;41.75;34.00;;;;;7.28;63.63;103037.00;4980324;28;46351;-77
2021/11/06 06:46:39;;;;;;;;;39.75;35.00;;;;;7.27;63.81;103043.06;4980162;28;45353;-77
2021/11/06 06:49:04;;;;;;;;;42.50;35.00;;;;;7.24;63.96;103034.25;4979400;28;45878;-78
2021/11/06 06:51:30;;;;;;;;;35.75;33.00;;;;;7.22;63.69;103046.44;4976605;28;45519;-78
2021/11/06 06:53:55;;;;;;;;;41.00;33.25;;;;;7.22;63.77;103046.44;4965103;28;45448;-78
2021/11/06 06:56:21;;;;;;;;;40.25;35.75;;;;;7.21;63.83;103045.56;4970374;28;45317;-78
2021/11/06 06:58:47;;;;;;;;;38.25;36.00;;;;;7.19;63.48;103048.16;4978997;28;45488;-79
2021/11/06 07:01:12;;;;;;;;;39.75;35.50;;;;;7.16;63.83;103042.84;4963748;28;45552;-78
2021/11/06 07:03:37;;;;;;;;;31.25;26.00;;;;;7.16;63.73;103047.22;4960407;28;45568;-80
2021/11/06 07:06:03;;;;;;;;;43.25;35.75;;;;;7.14;64.06;103041.94;4962271;28;45513;-76
2021/11/06 07:08:29;;;;;;;;;42.75;36.25;;;;;7.15;64.26;103046.34;4979886;28;45148;-77
2021/11/06 07:10:54;;;;;;;;;43.75;37.00;;;;;7.12;63.95;103037.53;4966917;28;45395;-77
2021/11/06 07:13:21;;;;;;;;;42.00;35.25;;;;;7.12;64.15;103041.03;4960332;28;45252;-77
2021/11/06 07:15:48;;;;;;;;;40.50;36.25;;;;;7.14;64.06;103048.91;4964751;28;45405;-76
2021/11/06 07:18:14;;;;;;;;;39.00;36.00;;;;;7.12;64.48;103041.03;4978118;28;45405;-77
2021/11/06 07:20:39;;;;;;;;;48.50;39.25;;;;;7.14;64.74;103046.28;4977983;28;46599;-79
2021/11/06 07:23:05;;;;;;;;;42.75;36.50;;;;;7.13;64.71;103034.09;4971744;28;45443;-77
2021/11/06 07:25:30;;;;;;;;;41.25;36.50;;;;;7.13;64.24;103042.81;4977137;28;45797;-77
2021/11/06 07:27:56;;;;;;;;;36.50;34.75;;;;;7.13;64.67;103048.03;4971502;28;45380;-77
2021/11/06 07:30:21;;;;;;;;;36.50;34.00;;;;;7.14;64.37;103044.56;4978527;28;45534;-77
2021/11/06 07:32:47;;;;;;;;;38.50;33.00;;;;;7.13;64.52;103042.81;4979424;28;46083;-77
2021/11/06 07:35:12;;;;;;;;;42.00;36.00;;;;;7.14;64.94;103046.28;4978840;28;45536;-77
2021/11/06 07:37:38;;;;;;;;;37.50;34.00;;;;;7.16;64.82;103053.31;4961317;28;45501;-77
2021/11/06 07:40:07;;;;;;;;;45.00;38.00;;;;;7.19;65.18;103048.16;4960276;28;45235;-77
2021/11/06 07:42:36;;;;;;;;;45.00;37.75;;;;;7.19;65.38;103042.03;4959868;28;45302;-77
2021/11/06 07:45:03;;;;;;;;;45.75;37.50;;;;;7.19;64.99;103040.31;4964396;28;45383;-77
2021/11/06 07:47:28;;;;;;;;;49.25;39.75;;;;;7.21;65.15;103037.69;4962981;28;45324;-77
2021/11/06 07:49:54;;;;;;;;;52.00;42.50;;;;;7.24;65.22;103039.50;4960107;28;45325;-77
2021/11/06 07:52:19;;;;;;;;;48.00;38.00;;;;;7.26;65.84;103043.03;4959365;28;45395;-77
2021/11/06 07:54:44;;;;;;;;;48.25;40.50;;;;;7.28;65.46;103046.56;4962035;28;45236;-77
2021/11/06 07:57:10;;;;;;;;;48.75;40.50;;;;;7.29;66.03;103037.84;4963003;28;45292;-77
2021/11/06 07:59:35;;;;;;;;;52.00;43.00;;;;;7.31;66.08;103047.50;4979478;28;45294;-77
2021/11/06 08:02:01;;;;;;;;;53.25;44.75;;;;;7.35;65.89;103050.16;4982513;28;45334;-77
2021/11/06 08:04:26;;;;;;;;;52.75;42.50;;;;;7.39;65.96;103050.25;4982677;28;45200;-77
2021/11/06 08:06:52;;;;;;;;;57.25;44.50;;;;;7.41;65.85;103047.66;4981815;28;45265;-77
2021/11/06 08:09:17;;;;;;;;;60.25;47.75;;;;;7.44;66.36;103050.31;4982136;28;45272;-77
2021/11/06 08:11:43;;;;;;;;;58.50;47.50;;;;;7.49;65.76;103058.25;4982439;28;45313;-77
2021/11/06 08:14:08;;;;;;;;;57.50;46.50;;;;;7.53;66.62;103057.47;4982202;28;45502;-77
2021/11/06 08:16:34;;;;;;;;;54.75;43.50;;;;;7.57;66.18;103059.28;4981950;28;45323;-77
2021/11/06 08:18:59;;;;;;;;;53.25;41.75;;;;;7.58;65.92;103055.78;4980359;28;45472;-76
2021/11/06 08:21:24;;;;;;;;;59.25;44.00;;;;;7.62;66.70;103062.88;4973439;28;45577;-77
2021/11/06 08:23:50;;;;;;;;;49.00;39.00;;;;;7.66;66.28;103066.41;4968409;28;45409;-77
2021/11/06 08:26:15;;;;;;;;;52.50;43.00;;;;;7.68;66.75;103074.31;4964086;28;45420;-77
2021/11/06 08:28:41;;;;;;;;;54.25;44.00;;;;;7.72;66.78;103065.63;4962800;28;45480;-77
2021/11/06 08:31:06;;;;;;;;;54.25;43.00;;;;;7.76;66.63;103063.09;4962584;28;45471;-77
2021/11/06 08:33:32;;;;;;;;;57.00;45.00;;;;;7.78;66.92;103057.00;4976154;28;45362;-77
2021/11/06 08:35:59;;;;;;;;;50.50;40.50;;;;;7.82;67.07;103051.84;4979569;28;45606;-76
2021/11/06 08:38:27;;;;;;;;;56.00;43.25;;;;;7.86;66.55;103052.75;4981945;28;45322;-77
2021/11/06 08:40:52;;;;;;;;;54.50;42.50;;;;;7.89;66.60;103050.19;4982057;28;45517;-77
2021/11/06 08:43:18;;;;;;;;;54.75;46.00;;;;;7.94;66.78;103051.16;4981515;28;45396;-77
2021/11/06 08:45:46;;;;;;;;;55.25;42.00;;;;;8.00;66.85;103055.59;4981632;28;45400;-77
2021/11/06 08:48:11;;;;;;;;;56.50;46.50;;;;;8.02;67.32;103059.13;4982013;28;45407;-77
2021/11/06 08:50:37;;;;;;;;;59.75;47.50;;;;;8.05;67.14;103051.28;4980479;28;45464;-77
2021/11/06 08:53:02;;;;;;;;;57.50;46.50;;;;;8.09;67.21;103053.13;4980266;28;45434;-77
2021/11/06 08:55:29;;;;;;;;;56.50;45.00;;;;;8.14;66.86;103052.31;4981932;28;45469;-77
2021/11/06 08:57:54;;;;;;;;;60.25;46.00;;;;;8.19;67.26;103053.25;4980626;28;45341;-77
2021/11/06 09:00:26;;;;;;;;;55.00;44.00;;;;;8.23;66.97;103052.44;4980382;28;45500;-77
2021/11/06 09:02:53;;;;;;;;;53.75;44.00;;;;;8.26;66.92;103049.88;4981551;28;45440;-77
2021/11/06 09:05:19;;;;;;;;;57.00;44.25;;;;;8.29;67.37;103051.66;4981031;28;45405;-76
2021/11/06 09:07:44;;;;;;;;;51.75;43.00;;;;;8.35;67.08;103056.06;4976829;28;45491;-76
2021/11/06 09:10:13;;;;;;;;;52.75;42.75;;;;;8.38;67.13;103056.13;4976271;28;45482;-76
2021/11/06 09:12:39;;;;;;;;;52.00;42.50;;;;;8.44;67.45;103064.09;4943609;28;45397;-76
2021/11/06 09:15:05;;;;;;;;;54.75;43.75;;;;;8.46;66.84;103057.13;4963957;28;45426;-76
2021/11/06 09:17:30;;;;;;;;;52.75;42.75;;;;;8.53;67.08;103060.69;4961877;28;45421;-77
2021/11/06 09:19:56;;;;;;;;;53.75;43.50;;;;;8.57;67.54;103056.38;4970638;28;45395;-77
2021/11/06 09:22:22;;;;;;;;;53.25;43.25;;;;;8.59;67.08;103050.34;4976638;28;45438;-77
2021/11/06 09:24:49;;;;;;;;;53.00;42.50;;;;;8.63;66.97;103059.09;4981679;28;45396;-77
2021/11/06 09:27:16;;;;;;;;;53.50;42.25;;;;;8.71;67.73;103056.59;4970834;28;45209;-77
2021/11/06 09:29:42;;;;;;;;;49.50;39.75;;;;;8.73;67.27;103044.38;4964421;28;45405;-77
2021/11/06 09:32:11;;;;;;;;;51.00;42.00;;;;;8.77;67.43;103051.41;4981318;28;45335;-77
2021/11/06 09:34:38;;;;;;;;;52.25;41.00;;;;;8.83;67.59;103047.97;4981614;28;45332;-77
2021/11/06 09:37:04;;;;;;;;;42.75;36.50;;;;;8.89;67.37;103048.03;4972334;28;46250;-77
2021/11/06 09:39:30;;;;;;;;;51.75;42.75;;;;;8.92;66.68;103053.34;4963817;28;45484;-76
2021/11/06 09:41:56;;;;;;;;;50.25;42.75;;;;;8.98;67.00;103049.91;4973802;28;45333;-76
2021/11/06 09:44:25;;;;;;;;;48.25;38.50;;;;;9.03;67.26;103042.97;4978135;28;45387;-77
2021/11/06 09:46:51;;;;;;;;;44.50;37.25;;;;;9.07;67.32;103036.00;4975658;28;45514;-77
2021/11/06 09:49:16;;;;;;;;;35.25;30.00;;;;;9.14;67.23;103034.31;4964066;28;49222;-77
2021/11/06 09:51:42;;;;;;;;;30.75;30.00;;;;;9.18;66.73;103042.25;4961726;28;45470;-77
2021/11/06 09:54:09;;;;;;;;;34.00;28.25;;;;;9.23;67.09;103039.69;4966335;28;45425;-77
2021/11/06 09:56:34;;;;;;;;;29.00;26.75;;;;;9.29;66.39;103044.09;4961422;28;45258;-77
2021/11/06 09:59:00;;;;;;;;;25.00;21.00;;;;;9.36;66.09;103038.03;4979254;28;46080;-77
2021/11/06 10:01:30;;;;;;;;;25.00;23.00;;;;;9.42;65.78;103038.09;4980595;28;45350;-77
2021/11/06 10:03:55;;;;;;;;;19.00;16.75;;;;;9.47;65.75;103032.88;4978300;28;45458;-77
2021/11/06 10:06:24;;;;;;;;;23.75;22.25;;;;;9.52;65.46;103030.31;4970165;28;45578;-77
2021/11/06 10:08:51;;;;;;;;;22.00;20.75;;;;;9.57;65.53;103045.25;4960486;28;46367;-76
2021/11/06 10:11:22;;;;;;;;;20.75;20.25;;;;;9.61;64.89;103040.00;4972012;28;45611;-77
2021/11/06 10:13:58;;;;;;;;;24.50;21.25;;;;;9.70;65.01;103041.81;4958898;28;45450;-77
2021/11/06 10:16:38;;;;;;;;;18.75;18.00;;;;;9.73;65.05;103034.84;4980160;28;45385;-77
2021/11/06 10:19:15;;;;;;;;;19.75;18.50;;;;;9.77;64.64;103035.75;4978403;28;46497;-77
2021/11/06 10:21:44;;;;;;;;;19.75;19.00;;;;;9.83;64.03;103032.31;4964051;28;45601;-77
2021/11/06 10:24:10;;;;;;;;;17.00;17.00;;;;;9.87;63.33;103037.59;4977692;28;45434;-79
2021/11/06 10:26:37;;;;;;;;;18.25;16.25;;;;;9.93;62.94;103035.84;4971077;28;45423;-78
2021/11/06 10:29:02;;;;;;;;;17.00;14.00;;;;;10.00;63.21;103038.53;4960075;28;45520;-78
2021/11/06 10:31:28;;;;;;;;;20.00;15.25;;;;;10.03;63.04;103032.41;4960485;28;45422;-79
2021/11/06 10:33:53;;;;;;;;;19.25;18.50;;;;;10.09;62.89;103029.84;4963125;28;45301;-79
2021/11/06 10:36:24;;;;;;;;;20.75;19.25;;;;;10.16;63.02;103027.22;4979297;28;45925;-79
2021/11/06 10:39:10;;;;;;;;;21.25;19.25;;;;;10.21;63.11;103025.50;4976478;28;45372;-79
2021/11/06 10:41:39;;;;;;;;;18.75;16.50;;;;;10.26;63.18;103017.66;4970978;28;45769;-79
2021/11/06 10:44:06;;;;;;;;;22.50;18.25;;;;;10.30;62.85;103020.31;4975197;28;45421;-79
2021/11/06 10:46:32;;;;;;;;;21.25;20.00;;;;;10.33;62.88;103019.44;4977626;28;45592;-79
2021/11/06 10:48:59;;;;;;;;;20.50;19.25;;;;;10.38;62.95;103019.47;4974379;28;45449;-79
2021/11/06 10:51:25;;;;;;;;;21.25;19.25;;;;;10.41;62.82;103017.75;4960149;28;45312;-78
2021/11/06 10:53:53;;;;;;;;;16.50;14.75;;;;;10.45;62.05;103013.34;4959900;28;45286;-79
2021/11/06 10:56:53;;;;;;;;;16.50;14.50;;;;;10.53;61.73;103005.53;4959740;28;45465;-79
2021/11/06 10:59:21;;;;;;;;;12.50;12.25;;;;;10.57;61.64;103002.91;4968859;28;45401;-78
2021/11/06 11:01:58;;;;;;;;;15.50;14.00;;;;;10.62;61.78;103002.06;4971242;28;45749;-78
2021/11/06 11:04:35;;;;;;;;;11.75;11.00;;;;;10.64;61.75;103003.81;4963512;28;45681;-79
2021/11/06 11:07:01;;;;;;;;;13.25;13.25;;;;;10.68;61.27;102988.94;4974173;28;45466;-78
2021/11/06 11:09:34;;;;;;;;;12.00;9.00;;;;;10.73;60.99;102991.56;4959794;28;45663;-78
2021/11/06 11:12:02;;;;;;;;;11.25;10.25;;;;;10.79;60.83;102989.81;4953180;28;45421;-78